Cmp Pendleton, California
Current Conditions -  °F | °C
As of 1:15 PM on Tuesday 21 Oct 2014 (Local Time) from KL18 Reporting Station
Clear Clear  
Wind Chill: 79°   Ceiling: Unl
Heat Index: 80°   Visibility: 10mi
Dew Point: 57°   Wind: 8mph
Humidity: 47%   Direction: 240°WSW
Pressure: 29.88"   Gusts: NA
Location:  33.356°N, 117.397°W
Report Text: KL18 212015Z AUTO 24007KT 10SM CLR 26/14 A2988 RMK AO2
Loading
Personal Weather Stations






























Interactive Weather Map
Tropical Storm Tracking
New forecast layout! Learn more

10-Day Weather Forecast

Advertisements
Track Severe Weather on mobile